Time;durP1;ratioP1;P1;durP2;ratioP2;P2;SDS_P1;SDS_P2;PMS_P1;PMS_P2;Temp;Humidity;BMP_temperature;BMP_pressure;BME280_temperature;BME280_humidity;BME280_pressure;Samples;Min_cycle;Max_cycle;Signal;HPM_P1;HPM_P2
2021/08/31 00:00:30;;;;;;;6.93;5.67;;;16.40;99.90;;;;;;5108642;28;20234;-71
2021/08/31 00:02:57;;;;;;;8.00;5.80;;;16.40;99.90;;;;;;5108064;28;20226;-72
2021/08/31 00:05:24;;;;;;;5.50;5.00;;;16.40;99.90;;;;;;5108507;28;20252;-71
2021/08/31 00:07:51;;;;;;;7.97;5.70;;;16.40;99.90;;;;;;5107943;28;20732;-71
2021/08/31 00:10:18;;;;;;;8.17;5.33;;;16.40;99.90;;;;;;5108387;28;20202;-71
2021/08/31 00:12:45;;;;;;;5.70;5.20;;;16.40;99.90;;;;;;5107706;28;20713;-71
2021/08/31 00:15:12;;;;;;;6.63;5.43;;;16.40;99.90;;;;;;5108423;28;20256;-72
2021/08/31 00:17:39;;;;;;;7.43;5.33;;;16.40;99.90;;;;;;5109564;28;20230;-72
2021/08/31 00:20:08;;;;;;;6.27;5.13;;;16.40;99.90;;;;;;5111697;28;20700;-71
2021/08/31 00:22:36;;;;;;;7.30;5.80;;;16.40;99.90;;;;;;5111984;28;20208;-72
2021/08/31 00:25:04;;;;;;;6.10;5.00;;;16.30;99.90;;;;;;5111824;28;20664;-72
2021/08/31 00:27:31;;;;;;;5.97;5.40;;;16.30;99.90;;;;;;5112035;28;20238;-72
2021/08/31 00:29:58;;;;;;;9.43;6.10;;;16.30;99.90;;;;;;5111679;28;20206;-72
2021/08/31 00:32:24;;;;;;;5.77;5.27;;;16.30;99.90;;;;;;5112237;28;20231;-71
2021/08/31 00:34:51;;;;;;;6.30;5.70;;;16.30;99.90;;;;;;5111575;28;20198;-71
2021/08/31 00:37:18;;;;;;;6.57;5.73;;;16.30;99.90;;;;;;5112053;28;20202;-71
2021/08/31 00:39:44;;;;;;;6.30;5.70;;;16.30;99.90;;;;;;5111622;28;20626;-70
2021/08/31 00:42:12;;;;;;;6.07;5.47;;;16.30;99.90;;;;;;5111713;28;20206;-70
2021/08/31 00:44:39;;;;;;;6.63;5.47;;;16.30;99.90;;;;;;5111308;28;20563;-70
2021/08/31 00:47:06;;;;;;;8.97;5.70;;;16.20;99.90;;;;;;5111624;28;20210;-70
2021/08/31 00:49:33;;;;;;;5.97;5.40;;;16.20;99.90;;;;;;5111588;28;20244;-70
2021/08/31 00:52:01;;;;;;;5.87;5.37;;;16.30;99.90;;;;;;5111353;28;20728;-70
2021/08/31 00:54:29;;;;;;;7.13;5.77;;;16.20;99.90;;;;;;5111299;28;20234;-71
2021/08/31 00:56:58;;;;;;;8.77;5.50;;;16.20;99.90;;;;;;5111378;28;20342;-70
2021/08/31 00:59:26;;;;;;;6.37;5.60;;;16.30;99.90;;;;;;5111577;28;20198;-70
2021/08/31 01:01:53;;;;;;;7.07;5.83;;;16.30;99.90;;;;;;5111170;28;20275;-71
2021/08/31 01:04:20;;;;;;;7.03;6.17;;;16.30;99.90;;;;;;5111064;28;20230;-71
2021/08/31 01:06:48;;;;;;;6.23;5.27;;;16.30;99.90;;;;;;5110648;28;20780;-71
2021/08/31 01:09:15;;;;;;;6.73;5.70;;;16.20;99.90;;;;;;5111542;28;20206;-71
2021/08/31 01:11:41;;;;;;;7.57;5.63;;;16.20;99.90;;;;;;5110889;28;20255;-71
2021/08/31 01:14:09;;;;;;;8.67;5.90;;;16.30;99.90;;;;;;5110683;28;20210;-71
2021/08/31 01:16:37;;;;;;;7.23;5.53;;;16.20;99.90;;;;;;5110801;28;20247;-71
2021/08/31 01:19:04;;;;;;;6.10;5.50;;;16.20;99.90;;;;;;5110359;28;20664;-71
2021/08/31 01:21:31;;;;;;;6.30;5.60;;;16.20;99.90;;;;;;5110628;28;20826;-71
2021/08/31 01:23:59;;;;;;;6.43;5.83;;;16.20;99.90;;;;;;5110621;28;20208;-71
2021/08/31 01:26:28;;;;;;;6.40;5.77;;;16.20;99.90;;;;;;5111031;28;20248;-71
2021/08/31 01:28:55;;;;;;;6.80;6.10;;;16.20;99.90;;;;;;5109923;28;20206;-71
2021/08/31 01:31:21;;;;;;;9.60;5.87;;;16.20;99.90;;;;;;5110782;28;20215;-71
2021/08/31 01:33:48;;;;;;;6.83;5.90;;;16.10;99.90;;;;;;5110605;28;20237;-71
2021/08/31 01:36:16;;;;;;;7.00;6.40;;;16.10;99.90;;;;;;5110948;28;20198;-71
2021/08/31 01:38:44;;;;;;;6.50;5.70;;;16.10;99.90;;;;;;5110668;28;20564;-71
2021/08/31 01:41:11;;;;;;;8.90;5.80;;;16.10;99.90;;;;;;5110424;28;20230;-71
2021/08/31 01:43:39;;;;;;;6.57;5.97;;;16.10;99.90;;;;;;5110011;28;20781;-71
2021/08/31 01:46:06;;;;;;;8.17;5.87;;;16.10;99.90;;;;;;5110310;28;20210;-72
2021/08/31 01:48:32;;;;;;;8.97;5.97;;;16.10;99.90;;;;;;5110332;28;20210;-71
2021/08/31 01:50:59;;;;;;;7.13;6.20;;;16.10;99.90;;;;;;5110529;28;20239;-71
2021/08/31 01:53:26;;;;;;;7.93;5.97;;;16.10;99.90;;;;;;5109941;28;20202;-71
2021/08/31 01:55:52;;;;;;;5.87;5.37;;;16.00;99.90;;;;;;5110258;28;20190;-71
2021/08/31 01:58:19;;;;;;;9.10;6.30;;;16.00;99.90;;;;;;5110431;27;20263;-71
2021/08/31 02:00:47;;;;;;;9.90;6.13;;;16.10;99.90;;;;;;5109989;28;20238;-72
2021/08/31 02:03:14;;;;;;;7.70;6.10;;;16.10;99.90;;;;;;5109977;28;20202;-73
2021/08/31 02:05:40;;;;;;;7.40;5.57;;;16.10;99.90;;;;;;5110105;28;20240;-73
2021/08/31 02:08:07;;;;;;;7.93;6.00;;;16.10;99.90;;;;;;5110080;28;20605;-73
2021/08/31 02:10:34;;;;;;;7.33;6.60;;;16.10;99.90;;;;;;5110137;27;20237;-73
2021/08/31 02:13:00;;;;;;;6.83;6.17;;;16.10;99.90;;;;;;5109891;28;20255;-72
2021/08/31 02:15:27;;;;;;;6.97;6.27;;;16.10;99.90;;;;;;5110007;28;20217;-71
2021/08/31 02:17:55;;;;;;;7.27;6.00;;;16.00;99.90;;;;;;5109598;28;20639;-71
2021/08/31 02:20:22;;;;;;;6.37;5.83;;;16.10;99.90;;;;;;5109823;28;20278;-71
2021/08/31 02:22:49;;;;;;;8.60;5.87;;;16.10;99.90;;;;;;5109741;28;20225;-72
2021/08/31 02:25:16;;;;;;;9.37;6.17;;;16.10;99.90;;;;;;5109647;28;20214;-72
2021/08/31 02:27:42;;;;;;;6.33;5.77;;;16.10;99.90;;;;;;5109309;28;20652;-72
2021/08/31 02:30:10;;;;;;;6.63;5.97;;;16.10;99.90;;;;;;5109481;28;20247;-71
2021/08/31 02:32:36;;;;;;;7.40;6.07;;;16.10;99.90;;;;;;5109347;28;20255;-71
2021/08/31 02:35:05;;;;;;;6.80;6.20;;;16.00;99.90;;;;;;5109374;28;20206;-72
2021/08/31 02:37:32;;;;;;;6.60;5.80;;;16.00;99.90;;;;;;5109617;27;20276;-71
2021/08/31 02:39:58;;;;;;;6.97;6.03;;;16.00;99.90;;;;;;5108906;28;20708;-72
2021/08/31 02:42:25;;;;;;;7.97;5.93;;;16.00;99.90;;;;;;5109403;28;20202;-71
2021/08/31 02:44:52;;;;;;;6.47;5.43;;;16.00;99.90;;;;;;5109323;28;20280;-73
2021/08/31 02:47:18;;;;;;;8.43;6.70;;;16.00;99.90;;;;;;5109217;28;20206;-72
2021/08/31 02:49:45;;;;;;;7.93;6.47;;;16.00;99.90;;;;;;5109286;28;20255;-72
2021/08/31 02:52:13;;;;;;;6.90;6.17;;;16.00;99.90;;;;;;5109150;28;20217;-72
2021/08/31 02:54:40;;;;;;;10.57;6.60;;;16.00;99.90;;;;;;5109022;28;20637;-72
2021/08/31 02:57:07;;;;;;;6.73;6.17;;;16.00;99.90;;;;;;5108790;28;20206;-71
2021/08/31 02:59:34;;;;;;;7.27;6.23;;;16.00;99.90;;;;;;5109176;28;20238;-71
2021/08/31 03:02:07;;;;;;;7.27;6.57;;;16.00;99.90;;;;;;5108643;28;20226;-70
2021/08/31 03:04:35;;;;;;;7.47;6.27;;;16.00;99.90;;;;;;5108197;28;20602;-71
2021/08/31 03:07:02;;;;;;;6.30;5.70;;;15.90;99.90;;;;;;5108552;28;20198;-71
2021/08/31 03:09:30;;;;;;;7.83;6.27;;;15.90;99.90;;;;;;5108547;28;20198;-71
2021/08/31 03:11:57;;;;;;;7.20;6.00;;;15.90;99.90;;;;;;5108656;28;20322;-72
2021/08/31 03:14:23;;;;;;;7.00;6.30;;;15.90;99.90;;;;;;5108398;28;20210;-73
2021/08/31 03:16:50;;;;;;;6.50;5.90;;;15.90;99.90;;;;;;5108215;28;20198;-72
2021/08/31 03:19:17;;;;;;;6.97;6.27;;;15.90;99.90;;;;;;5108338;28;20279;-72
2021/08/31 03:21:44;;;;;;;6.40;5.90;;;15.90;99.90;;;;;;5102970;28;20727;-72
2021/08/31 03:24:11;;;;;;;9.10;6.53;;;15.90;99.90;;;;;;5104952;28;20264;-72
2021/08/31 03:26:39;;;;;;;6.87;6.27;;;15.90;99.90;;;;;;5104758;28;20198;-72
2021/08/31 03:29:05;;;;;;;6.83;6.23;;;15.90;99.90;;;;;;5104662;28;20202;-72
2021/08/31 03:31:32;;;;;;;7.33;6.17;;;15.90;99.90;;;;;;5105187;28;20266;-72
2021/08/31 03:33:58;;;;;;;6.70;6.03;;;15.90;99.90;;;;;;5104559;28;20572;-71
2021/08/31 03:36:25;;;;;;;6.60;6.03;;;15.90;99.90;;;;;;5104959;28;20247;-72
2021/08/31 03:38:52;;;;;;;7.80;7.10;;;15.90;99.90;;;;;;5104420;28;20222;-72
2021/08/31 03:41:20;;;;;;;9.23;7.17;;;15.90;99.90;;;;;;5105169;28;20692;-73
2021/08/31 03:43:48;;;;;;;6.83;6.13;;;15.90;99.90;;;;;;5104038;28;20733;-72
2021/08/31 03:46:15;;;;;;;6.80;6.07;;;15.90;99.90;;;;;;5104600;28;20251;-72
2021/08/31 03:48:41;;;;;;;7.03;6.17;;;15.80;99.90;;;;;;5104680;28;20279;-72
2021/08/31 03:51:08;;;;;;;7.90;6.50;;;15.80;99.90;;;;;;5104289;28;20285;-72
2021/08/31 03:53:34;;;;;;;7.80;6.60;;;15.90;99.90;;;;;;5107345;28;20234;-72
2021/08/31 03:56:01;;;;;;;7.57;6.00;;;15.90;99.90;;;;;;5108745;28;20195;-72
2021/08/31 03:58:28;;;;;;;7.33;5.97;;;15.90;99.90;;;;;;5107503;28;20522;-72
2021/08/31 04:00:56;;;;;;;7.73;6.60;;;15.90;99.90;;;;;;5108277;28;20637;-72
2021/08/31 04:03:23;;;;;;;8.30;5.90;;;15.90;99.90;;;;;;5110718;28;20274;-73
2021/08/31 04:05:49;;;;;;;7.07;6.37;;;15.80;99.90;;;;;;5101712;27;20195;-71
2021/08/31 04:08:16;;;;;;;7.47;6.00;;;15.80;99.90;;;;;;5102406;28;20425;-71
2021/08/31 04:10:43;;;;;;;6.67;6.03;;;15.80;99.90;;;;;;5101248;28;20601;-72
2021/08/31 04:13:12;;;;;;;6.47;5.70;;;15.80;99.90;;;;;;5099893;28;20202;-72
2021/08/31 04:15:38;;;;;;;6.97;6.27;;;15.80;99.90;;;;;;5099846;28;20255;-71
2021/08/31 04:18:07;;;;;;;6.80;6.20;;;15.80;99.90;;;;;;5101400;28;20194;-71
2021/08/31 04:20:33;;;;;;;6.43;5.83;;;15.80;99.90;;;;;;5097683;28;20664;-71
2021/08/31 04:23:00;;;;;;;6.43;5.73;;;15.90;99.90;;;;;;5101786;27;20626;-71
2021/08/31 04:25:26;;;;;;;8.17;5.77;;;15.90;99.90;;;;;;5099816;28;20202;-72
2021/08/31 04:27:53;;;;;;;8.60;6.07;;;15.80;99.90;;;;;;5100124;27;20190;-71
2021/08/31 04:30:20;;;;;;;6.93;6.23;;;15.80;99.90;;;;;;5101070;28;20210;-71
2021/08/31 04:32:46;;;;;;;6.77;6.10;;;15.80;99.90;;;;;;5098811;28;20545;-71
2021/08/31 04:35:16;;;;;;;6.77;6.10;;;15.80;99.90;;;;;;5099652;28;20574;-71
2021/08/31 04:37:43;;;;;;;8.23;5.67;;;15.80;99.90;;;;;;5101414;27;20612;-71
2021/08/31 04:40:10;;;;;;;6.93;6.27;;;15.80;99.90;;;;;;5101169;28;20968;-72
2021/08/31 04:42:37;;;;;;;5.83;5.43;;;15.70;99.90;;;;;;5100611;28;21016;-72
2021/08/31 04:45:04;;;;;;;6.80;6.07;;;15.70;99.90;;;;;;5101145;28;20202;-72
2021/08/31 04:47:30;;;;;;;6.60;5.97;;;15.70;99.90;;;;;;5099007;28;20657;-72
2021/08/31 04:49:57;;;;;;;6.97;6.13;;;15.70;99.90;;;;;;5100548;28;20203;-71
2021/08/31 04:52:25;;;;;;;6.73;6.07;;;15.70;99.90;;;;;;5098765;28;20195;-71
2021/08/31 04:54:52;;;;;;;7.73;5.57;;;15.70;99.90;;;;;;5100507;27;20640;-72
2021/08/31 04:57:18;;;;;;;6.07;5.47;;;15.60;99.90;;;;;;5095971;28;20264;-71
2021/08/31 04:59:45;;;;;;;6.73;5.87;;;15.70;99.90;;;;;;5091086;28;20207;-71
2021/08/31 05:02:12;;;;;;;7.07;5.77;;;15.70;99.90;;;;;;5110382;28;20574;-71
2021/08/31 05:04:38;;;;;;;7.63;6.93;;;15.70;99.90;;;;;;5109043;28;20222;-71
2021/08/31 05:07:10;;;;;;;6.53;5.93;;;15.70;99.90;;;;;;5110629;28;20202;-71
2021/08/31 05:09:38;;;;;;;6.53;5.90;;;15.80;99.90;;;;;;5110194;28;20194;-71
2021/08/31 05:12:05;;;;;;;6.73;5.63;;;15.80;99.90;;;;;;5107844;28;20194;-71
2021/08/31 05:14:32;;;;;;;6.50;5.73;;;15.80;99.90;;;;;;5110218;28;20195;-71
2021/08/31 05:16:59;;;;;;;6.63;5.50;;;15.80;99.90;;;;;;5110407;28;20195;-72
2021/08/31 05:19:26;;;;;;;6.80;5.87;;;15.80;99.90;;;;;;5104757;28;20761;-72
2021/08/31 05:21:53;;;;;;;7.17;6.07;;;15.70;99.90;;;;;;5099818;28;20361;-72
2021/08/31 05:24:20;;;;;;;6.00;5.50;;;15.80;99.90;;;;;;5097926;28;20661;-72
2021/08/31 05:26:47;;;;;;;7.73;5.93;;;15.80;99.90;;;;;;5098728;28;20551;-72
2021/08/31 05:29:14;;;;;;;6.80;6.17;;;15.80;99.90;;;;;;5096777;28;20194;-72
2021/08/31 05:31:44;;;;;;;6.27;5.67;;;15.70;99.90;;;;;;5099252;28;20740;-72
2021/08/31 05:34:11;;;;;;;6.07;5.47;;;15.70;99.90;;;;;;5099437;28;20202;-72
2021/08/31 05:36:37;;;;;;;6.37;5.77;;;15.70;99.90;;;;;;5097729;28;20195;-72
2021/08/31 05:39:05;;;;;;;8.30;5.20;;;15.70;99.90;;;;;;5098804;27;20275;-72
2021/08/31 05:41:32;;;;;;;5.90;5.43;;;15.80;99.90;;;;;;5100429;28;20315;-72
2021/08/31 05:44:00;;;;;;;7.40;6.07;;;15.80;99.90;;;;;;5099890;28;21010;-72
2021/08/31 05:46:27;;;;;;;6.03;5.43;;;15.80;99.90;;;;;;5101287;28;20286;-73
2021/08/31 05:48:53;;;;;;;6.03;5.53;;;15.80;99.90;;;;;;5096467;28;20248;-73
2021/08/31 05:51:20;;;;;;;6.57;5.97;;;15.70;99.90;;;;;;5099455;28;20235;-73
2021/08/31 05:53:47;;;;;;;6.57;5.97;;;15.70;99.90;;;;;;5098228;28;20226;-73
2021/08/31 05:56:13;;;;;;;7.87;6.30;;;15.80;99.90;;;;;;5102198;28;20659;-73
2021/08/31 05:58:40;;;;;;;7.57;5.70;;;15.80;99.90;;;;;;5100714;28;20203;-73
2021/08/31 06:01:08;;;;;;;6.40;5.80;;;15.80;99.90;;;;;;5088607;28;20218;-72
2021/08/31 06:03:34;;;;;;;6.63;6.03;;;15.80;99.90;;;;;;5088851;28;20252;-73
2021/08/31 06:06:04;;;;;;;6.80;6.10;;;15.80;99.90;;;;;;5093100;28;20198;-72
2021/08/31 06:08:33;;;;;;;8.83;6.40;;;15.90;99.90;;;;;;5102869;28;20251;-72
2021/08/31 06:11:01;;;;;;;6.33;5.73;;;15.90;99.90;;;;;;5094006;28;20221;-72
2021/08/31 06:13:28;;;;;;;6.10;5.60;;;15.90;99.90;;;;;;5101459;28;20591;-72
2021/08/31 06:15:54;;;;;;;5.77;5.20;;;15.90;99.90;;;;;;5095617;28;20199;-72
2021/08/31 06:18:22;;;;;;;8.13;6.17;;;15.90;99.90;;;;;;5099748;28;20247;-72
2021/08/31 06:20:50;;;;;;;7.63;6.00;;;15.90;99.90;;;;;;5103321;28;20247;-72
2021/08/31 06:23:17;;;;;;;5.87;5.33;;;15.90;99.90;;;;;;5097307;28;20700;-72
2021/08/31 06:25:44;;;;;;;6.30;5.70;;;16.00;99.90;;;;;;5091538;28;20200;-72
2021/08/31 06:28:10;;;;;;;5.73;5.23;;;16.00;99.90;;;;;;5091243;28;20373;-72
2021/08/31 06:30:37;;;;;;;7.00;5.50;;;16.00;99.90;;;;;;5093495;28;20202;-72
2021/08/31 06:33:04;;;;;;;6.13;5.63;;;16.00;99.90;;;;;;5094551;28;20260;-72
2021/08/31 06:35:32;;;;;;;7.40;5.60;;;16.00;99.90;;;;;;5105586;28;20205;-72
2021/08/31 06:37:58;;;;;;;6.07;5.47;;;16.00;99.90;;;;;;5107804;28;21568;-72
2021/08/31 06:40:25;;;;;;;8.23;6.63;;;16.00;99.90;;;;;;5105306;28;20640;-72
2021/08/31 06:42:52;;;;;;;6.93;6.33;;;15.90;99.90;;;;;;5105288;28;20229;-72
2021/08/31 06:45:19;;;;;;;5.83;5.20;;;16.00;99.90;;;;;;5105360;28;20212;-72
2021/08/31 06:47:45;;;;;;;6.03;5.57;;;16.00;99.90;;;;;;5108307;28;20656;-72
2021/08/31 06:50:15;;;;;;;5.97;5.47;;;16.00;99.90;;;;;;5107527;28;20219;-72
2021/08/31 06:52:44;;;;;;;6.47;5.90;;;16.00;99.90;;;;;;5105349;28;20267;-72
2021/08/31 06:55:12;;;;;;;11.00;6.60;;;16.00;99.90;;;;;;5107615;28;20236;-72
2021/08/31 06:57:39;;;;;;;9.00;5.97;;;16.10;99.90;;;;;;5107785;28;20672;-72
2021/08/31 07:00:07;;;;;;;6.73;6.00;;;16.10;99.90;;;;;;5107987;28;20214;-72
2021/08/31 07:02:34;;;;;;;6.00;5.37;;;16.10;99.90;;;;;;5131624;27;20213;-72
2021/08/31 07:05:01;;;;;;;6.03;5.40;;;16.20;99.90;;;;;;5088285;28;20229;-72
2021/08/31 07:07:28;;;;;;;9.20;5.90;;;16.20;99.90;;;;;;5088506;28;21045;-72
2021/08/31 07:09:56;;;;;;;6.57;5.97;;;16.20;99.90;;;;;;5088187;28;20666;-72
2021/08/31 07:12:22;;;;;;;6.17;5.60;;;16.30;99.90;;;;;;5088496;28;20259;-72
2021/08/31 07:14:51;;;;;;;8.43;5.53;;;16.30;99.90;;;;;;5088703;28;20207;-72
2021/08/31 07:17:18;;;;;;;6.50;5.90;;;16.30;99.90;;;;;;5088382;28;20211;-72
2021/08/31 07:19:44;;;;;;;6.53;5.87;;;16.40;99.90;;;;;;5088371;28;20210;-72
2021/08/31 07:22:11;;;;;;;6.30;5.70;;;16.50;99.90;;;;;;5088129;28;20283;-72
2021/08/31 07:24:38;;;;;;;6.37;5.80;;;16.60;99.90;;;;;;5088274;28;20259;-72
2021/08/31 07:27:06;;;;;;;5.77;5.27;;;16.60;99.90;;;;;;5087488;28;20260;-72
2021/08/31 07:29:33;;;;;;;5.47;4.93;;;16.70;99.90;;;;;;5088291;28;20246;-72
2021/08/31 07:31:59;;;;;;;7.63;5.77;;;16.70;99.90;;;;;;5087874;28;20211;-72
2021/08/31 07:34:28;;;;;;;6.00;5.50;;;16.80;99.90;;;;;;5087900;28;20264;-72
2021/08/31 07:36:54;;;;;;;5.87;5.30;;;16.80;99.90;;;;;;5088034;28;20209;-72
2021/08/31 07:39:21;;;;;;;5.83;5.40;;;16.90;99.90;;;;;;5107487;28;20218;-72
2021/08/31 07:41:48;;;;;;;6.03;5.50;;;16.90;99.90;;;;;;5107590;28;20255;-72
2021/08/31 07:44:16;;;;;;;6.53;5.93;;;16.90;99.90;;;;;;5107294;28;20664;-72
2021/08/31 07:46:46;;;;;;;6.07;5.47;;;17.00;99.90;;;;;;5107709;28;20218;-73
2021/08/31 07:49:13;;;;;;;6.00;5.43;;;17.00;99.90;;;;;;5107932;28;20210;-73
2021/08/31 07:51:40;;;;;;;5.80;5.20;;;17.00;99.90;;;;;;5108029;28;20251;-73
2021/08/31 07:54:06;;;;;;;6.93;5.70;;;17.00;99.90;;;;;;5107312;28;20230;-73
2021/08/31 07:56:33;;;;;;;5.83;5.33;;;17.10;99.90;;;;;;5107224;28;20194;-72
2021/08/31 07:59:00;;;;;;;6.33;5.77;;;17.10;99.90;;;;;;5107806;28;20263;-72
2021/08/31 08:01:29;;;;;;;6.73;5.13;;;17.20;99.90;;;;;;5107689;28;20758;-72
2021/08/31 08:03:56;;;;;;;6.03;4.90;;;17.20;99.90;;;;;;5107607;28;20230;-72
2021/08/31 08:06:23;;;;;;;6.03;5.20;;;17.30;99.90;;;;;;5107891;28;20203;-72
2021/08/31 08:08:50;;;;;;;5.90;5.20;;;17.30;99.90;;;;;;5107623;28;20241;-72
2021/08/31 08:11:17;;;;;;;15.07;5.63;;;17.40;99.90;;;;;;5107744;28;20210;-72
2021/08/31 08:13:44;;;;;;;5.60;5.20;;;17.50;99.90;;;;;;5104037;28;20198;-72
2021/08/31 08:16:11;;;;;;;6.03;5.47;;;17.50;99.90;;;;;;5104067;28;20190;-72
2021/08/31 08:18:39;;;;;;;7.03;5.23;;;17.50;99.90;;;;;;5106433;28;20240;-72
2021/08/31 08:21:05;;;;;;;6.00;5.50;;;17.50;99.90;;;;;;5106653;28;20203;-72
2021/08/31 08:23:33;;;;;;;5.70;5.20;;;17.60;99.90;;;;;;5096888;28;20217;-73
2021/08/31 08:25:59;;;;;;;5.43;5.03;;;17.60;99.90;;;;;;5096777;28;20256;-72
2021/08/31 08:28:26;;;;;;;5.97;5.37;;;17.60;99.90;;;;;;5106722;28;20623;-72
2021/08/31 08:30:53;;;;;;;6.00;5.40;;;17.70;99.90;;;;;;5095837;28;20226;-72
2021/08/31 08:33:22;;;;;;;5.17;4.77;;;17.80;99.90;;;;;;5095924;28;20271;-73
2021/08/31 08:35:50;;;;;;;5.53;5.03;;;17.90;99.90;;;;;;5098521;28;20612;-72
2021/08/31 08:38:17;;;;;;;5.43;5.00;;;18.00;99.90;;;;;;5106977;28;20639;-72
2021/08/31 08:40:44;;;;;;;5.53;5.10;;;18.20;99.90;;;;;;5110265;28;20679;-72
2021/08/31 08:43:14;;;;;;;5.40;4.90;;;18.10;99.90;;;;;;5110093;28;20226;-72
2021/08/31 08:45:45;;;;;;;6.00;5.50;;;18.10;99.90;;;;;;5109865;28;20641;-72
2021/08/31 08:48:18;;;;;;;5.70;5.20;;;18.10;99.90;;;;;;5109887;28;20302;-72
2021/08/31 08:50:46;;;;;;;6.20;5.60;;;18.00;99.90;;;;;;5109719;28;20293;-72
2021/08/31 08:53:15;;;;;;;5.60;5.10;;;18.00;99.90;;;;;;5109409;28;20217;-71
2021/08/31 08:55:42;;;;;;;5.70;5.20;;;18.00;99.90;;;;;;5109671;28;20194;-72
2021/08/31 08:58:08;;;;;;;5.87;5.23;;;18.00;99.90;;;;;;5098117;28;20673;-73
2021/08/31 09:00:52;;;;;;;6.47;5.60;;;18.00;99.90;;;;;;5105921;28;20788;-72
2021/08/31 09:03:21;;;;;;;6.03;5.63;;;18.00;99.90;;;;;;5104949;28;20350;-73
2021/08/31 09:05:49;;;;;;;6.50;5.90;;;17.90;99.90;;;;;;5109975;28;20198;-72
2021/08/31 09:08:17;;;;;;;6.73;5.43;;;18.00;99.90;;;;;;5108160;28;20205;-72
2021/08/31 09:10:47;;;;;;;6.20;5.50;;;18.10;99.90;;;;;;5103518;28;20228;-72
2021/08/31 09:13:19;;;;;;;5.57;5.17;;;18.20;99.90;;;;;;5107422;28;20225;-72
2021/08/31 09:15:46;;;;;;;5.90;5.40;;;18.30;99.90;;;;;;5110918;28;20198;-72
2021/08/31 09:18:16;;;;;;;6.43;5.83;;;18.30;99.90;;;;;;5110819;28;20681;-72
2021/08/31 09:20:57;;;;;;;5.50;5.10;;;18.40;99.90;;;;;;5110725;28;20282;-72
2021/08/31 09:23:28;;;;;;;5.57;5.17;;;18.40;99.90;;;;;;5110790;28;20221;-72
2021/08/31 09:25:57;;;;;;;6.03;5.63;;;18.50;99.90;;;;;;5110835;28;20202;-72
2021/08/31 09:28:26;;;;;;;5.63;5.13;;;18.50;99.90;;;;;;5110692;28;20205;-72
2021/08/31 09:30:58;;;;;;;10.83;8.83;;;18.60;99.90;;;;;;5110532;28;20217;-72
2021/08/31 09:33:25;;;;;;;6.07;5.50;;;18.60;99.90;;;;;;5110143;28;20604;-72
2021/08/31 09:36:02;;;;;;;5.83;5.30;;;18.70;99.90;;;;;;5110415;28;20248;-72
2021/08/31 09:38:41;;;;;;;6.10;5.03;;;18.80;99.90;;;;;;5110108;28;20233;-72
2021/08/31 09:41:08;;;;;;;5.97;5.47;;;18.80;99.90;;;;;;5110393;28;20201;-72
2021/08/31 09:43:35;;;;;;;5.83;5.20;;;18.80;99.90;;;;;;5109991;28;20232;-72
2021/08/31 09:46:01;;;;;;;5.30;4.80;;;18.80;99.90;;;;;;5110077;28;20213;-73
2021/08/31 09:48:28;;;;;;;5.90;5.30;;;18.90;99.90;;;;;;5110107;28;20259;-72
2021/08/31 09:50:58;;;;;;;6.03;5.47;;;18.90;99.90;;;;;;5109133;28;20194;-72
2021/08/31 09:53:26;;;;;;;6.07;5.57;;;19.00;99.90;;;;;;5109735;28;20214;-72
2021/08/31 09:56:06;;;;;;;5.57;5.17;;;19.00;99.90;;;;;;5110277;28;20191;-73
2021/08/31 09:58:34;;;;;;;5.43;4.97;;;19.10;99.90;;;;;;5109910;28;20310;-72
2021/08/31 10:01:02;;;;;;;6.77;5.00;;;19.20;99.90;;;;;;5109622;28;20222;-73
2021/08/31 10:03:30;;;;;;;5.97;5.40;;;19.20;99.90;;;;;;5109489;28;20225;-73
2021/08/31 10:05:58;;;;;;;5.77;5.27;;;19.20;99.90;;;;;;5108828;28;20656;-73
2021/08/31 10:08:28;;;;;;;6.07;5.60;;;19.20;99.90;;;;;;5109545;28;20202;-73
2021/08/31 10:10:56;;;;;;;5.80;5.30;;;19.20;99.90;;;;;;5109047;28;20217;-74
2021/08/31 10:13:24;;;;;;;5.70;5.30;;;19.10;99.90;;;;;;5108662;28;20205;-74
2021/08/31 10:15:54;;;;;;;6.10;5.60;;;19.00;99.90;;;;;;5107699;28;20233;-73
2021/08/31 10:18:22;;;;;;;5.30;4.90;;;19.00;99.90;;;;;;5110320;27;20209;-74
2021/08/31 10:20:51;;;;;;;5.77;5.27;;;19.00;99.90;;;;;;5123786;27;20198;-73
2021/08/31 10:23:23;;;;;;;5.43;4.93;;;18.90;99.90;;;;;;5101218;28;20283;-74
2021/08/31 10:25:49;;;;;;;7.20;5.53;;;18.90;99.90;;;;;;5105391;28;20271;-73
2021/08/31 10:28:26;;;;;;;5.80;5.30;;;19.00;99.90;;;;;;5105165;28;20231;-73
2021/08/31 10:30:55;;;;;;;5.70;5.20;;;19.00;99.90;;;;;;5103583;28;20194;-73
2021/08/31 10:33:34;;;;;;;6.07;5.57;;;19.00;99.90;;;;;;5099058;28;20590;-74
2021/08/31 10:36:02;;;;;;;6.07;5.57;;;19.10;99.90;;;;;;5100797;28;20311;-72
2021/08/31 10:38:52;;;;;;;5.80;5.30;;;19.20;99.90;;;;;;5106740;28;21590;-72
2021/08/31 10:41:48;;;;;;;6.33;5.83;;;19.30;99.90;;;;;;5102484;28;20186;-73
2021/08/31 10:44:40;;;;;;;5.47;5.00;;;19.40;99.90;;;;;;5104875;28;20312;-73
2021/08/31 10:47:28;;;;;;;5.27;4.90;;;19.40;99.90;;;;;;5106929;28;20274;-73
2021/08/31 10:50:20;;;;;;;5.63;5.13;;;19.30;99.90;;;;;;5102650;28;20195;-73
2021/08/31 10:52:50;;;;;;;6.23;5.63;;;19.30;99.90;;;;;;5104045;28;20197;-73
2021/08/31 10:55:46;;;;;;;6.77;6.00;;;19.30;99.90;;;;;;5107392;28;20678;-73
2021/08/31 10:58:14;;;;;;;6.57;5.57;;;19.30;99.90;;;;;;5107464;28;20206;-74
2021/08/31 11:00:54;;;;;;;6.27;5.33;;;19.30;99.90;;;;;;5107822;28;20250;-74
2021/08/31 11:03:34;;;;;;;5.93;5.27;;;19.30;99.90;;;;;;5099758;28;20241;-73
2021/08/31 11:06:26;;;;;;;6.03;5.57;;;19.40;99.90;;;;;;5095388;28;20186;-73
2021/08/31 11:09:17;;;;;;;6.33;5.30;;;19.40;99.90;;;;;;5104417;28;20643;-73
2021/08/31 11:11:47;;;;;;;5.93;5.40;;;19.40;99.90;;;;;;5105727;28;20694;-73
2021/08/31 11:14:14;;;;;;;6.20;5.60;;;19.40;99.90;;;;;;5107251;28;20267;-73
2021/08/31 11:16:41;;;;;;;5.80;5.30;;;19.50;99.90;;;;;;5095495;28;20199;-73
2021/08/31 11:19:25;;;;;;;5.80;5.37;;;19.60;99.90;;;;;;5093993;28;20202;-73
2021/08/31 11:21:53;;;;;;;5.20;4.80;;;19.80;99.90;;;;;;5106963;28;20193;-73
2021/08/31 11:24:21;;;;;;;5.77;5.33;;;19.90;99.90;;;;;;5107534;28;20370;-73
2021/08/31 11:26:47;;;;;;;6.13;5.63;;;20.00;99.90;;;;;;5097246;28;20203;-73
2021/08/31 11:29:14;;;;;;;5.57;5.07;;;19.90;99.90;;;;;;5088269;28;20214;-73
2021/08/31 11:31:41;;;;;;;5.57;5.10;;;19.70;99.90;;;;;;5113352;28;20213;-73
2021/08/31 11:34:12;;;;;;;6.50;5.40;;;19.60;99.90;;;;;;5128799;28;20197;-73
2021/08/31 11:36:41;;;;;;;5.67;5.07;;;19.70;99.90;;;;;;5088264;28;20241;-73
2021/08/31 11:39:11;;;;;;;5.77;4.97;;;19.90;99.90;;;;;;5105683;28;20218;-73
2021/08/31 11:41:39;;;;;;;6.50;5.13;;;19.90;99.90;;;;;;5099064;28;20201;-74
2021/08/31 11:44:12;;;;;;;5.30;4.90;;;20.00;99.90;;;;;;5097123;28;20224;-73
2021/08/31 11:46:41;;;;;;;5.50;5.00;;;19.90;99.90;;;;;;5096811;28;20205;-73
2021/08/31 11:49:10;;;;;;;5.67;5.03;;;19.90;99.90;;;;;;5101348;28;20198;-74
2021/08/31 11:51:38;;;;;;;5.27;4.80;;;20.00;99.90;;;;;;5101013;28;20255;-73
2021/08/31 11:54:08;;;;;;;5.37;4.97;;;20.10;99.90;;;;;;5099421;28;20228;-74
2021/08/31 11:56:35;;;;;;;5.80;5.30;;;20.20;99.90;;;;;;5106830;28;21037;-73
2021/08/31 11:59:02;;;;;;;4.80;4.40;;;20.20;99.90;;;;;;5093406;28;20195;-73
2021/08/31 12:01:30;;;;;;;4.63;4.33;;;20.30;99.90;;;;;;5098472;28;20555;-74
2021/08/31 12:03:57;;;;;;;5.10;4.37;;;20.40;99.90;;;;;;5103528;28;20218;-72
2021/08/31 12:06:25;;;;;;;6.07;4.70;;;20.60;99.90;;;;;;5106713;28;20202;-72
2021/08/31 12:08:52;;;;;;;4.13;3.80;;;20.60;99.90;;;;;;5107522;28;20198;-74
2021/08/31 12:11:20;;;;;;;4.67;4.27;;;20.70;99.90;;;;;;5107020;28;20198;-73
2021/08/31 12:13:49;;;;;;;5.80;4.57;;;20.70;99.90;;;;;;5108097;28;20206;-74
2021/08/31 12:16:18;;;;;;;4.50;4.20;;;20.60;99.90;;;;;;5111590;28;20202;-74
2021/08/31 12:18:45;;;;;;;5.37;4.43;;;20.70;99.90;;;;;;5111581;28;20205;-74
2021/08/31 12:21:20;;;;;;;4.70;4.30;;;20.70;99.90;;;;;;5111309;28;20202;-73
2021/08/31 12:23:49;;;;;;;4.43;4.13;;;20.90;99.90;;;;;;5112984;27;20283;-74
2021/08/31 12:26:30;;;;;;;4.47;4.10;;;21.00;99.90;;;;;;5112301;27;20202;-73
2021/08/31 12:29:02;;;;;;;4.03;3.73;;;21.10;99.90;;;;;;5105457;28;20664;-73
2021/08/31 12:31:29;;;;;;;6.10;4.73;;;21.20;99.90;;;;;;5111803;28;20201;-74
2021/08/31 12:33:56;;;;;;;4.73;4.30;;;21.30;99.90;;;;;;5111766;28;20240;-74
2021/08/31 12:36:32;;;;;;;6.83;4.33;;;21.30;99.90;;;;;;5111485;28;20247;-75
2021/08/31 12:39:04;;;;;;;4.40;4.00;;;21.30;99.90;;;;;;5108859;27;20275;-74
2021/08/31 12:41:40;;;;;;;5.40;4.10;;;21.40;99.90;;;;;;5118103;27;20202;-74
2021/08/31 12:44:17;;;;;;;4.07;3.67;;;21.60;99.90;;;;;;5111256;28;20217;-73
2021/08/31 12:46:44;;;;;;;4.45;4.10;;;21.70;99.90;;;;;;5102953;28;20197;-73
2021/08/31 12:49:13;;;;;;;5.05;4.13;;;21.90;99.90;;;;;;5111025;28;20206;-73
2021/08/31 12:51:42;;;;;;;9.55;5.05;;;22.10;99.90;;;;;;5110732;27;20206;-75